createdAt,value
2017-08-18T00:00:44.545Z,1007.1
2017-08-18T00:01:47.043Z,1007.1
2017-08-18T00:02:50.224Z,1007.1
2017-08-18T00:03:53.054Z,1007.1
2017-08-18T00:04:55.897Z,1007
2017-08-18T00:05:59.423Z,1007.1
2017-08-18T00:07:02.254Z,1007.1
2017-08-18T00:08:05.436Z,1007
2017-08-18T00:09:07.943Z,1007
2017-08-18T00:10:10.765Z,1007
2017-08-18T00:11:13.963Z,1007
2017-08-18T00:12:16.465Z,1007
2017-08-18T00:13:18.986Z,1007
2017-08-18T00:14:21.811Z,1006.9
2017-08-18T00:15:24.321Z,1006.9
2017-08-18T00:16:27.162Z,1006.9
2017-08-18T00:17:29.664Z,1006.9
2017-08-18T00:18:32.168Z,1006.9
2017-08-18T00:19:35.012Z,1007
2017-08-18T00:20:37.849Z,1007
2017-08-18T00:21:40.354Z,1007
2017-08-18T00:22:42.847Z,1007
2017-08-18T00:23:45.339Z,1007
2017-08-18T00:24:47.847Z,1007
2017-08-18T00:25:50.686Z,1007
2017-08-18T00:26:53.195Z,1006.9
2017-08-18T00:27:55.716Z,1007
2017-08-18T00:28:58.223Z,1007
2017-08-18T00:30:01.401Z,1007
2017-08-18T00:31:04.936Z,1007
2017-08-18T00:32:07.749Z,1007
2017-08-18T00:33:10.252Z,1007
2017-08-18T00:34:12.761Z,1006.9
2017-08-18T00:35:15.268Z,1007
2017-08-18T00:36:17.765Z,1007
2017-08-18T00:37:20.262Z,1007
2017-08-18T00:38:22.784Z,1007
2017-08-18T00:39:25.295Z,1007
2017-08-18T00:40:27.800Z,1007
2017-08-18T00:41:30.278Z,1007
2017-08-18T00:42:32.793Z,1007
2017-08-18T00:43:35.295Z,1007
2017-08-18T00:44:38.146Z,1007
2017-08-18T00:45:40.988Z,1007
2017-08-18T00:46:44.181Z,1007
2017-08-18T00:47:47.046Z,1007
2017-08-18T00:48:49.869Z,1007
2017-08-18T00:49:52.700Z,1007
2017-08-18T00:50:55.528Z,1007
2017-08-18T00:51:58.035Z,1007
2017-08-18T00:53:00.878Z,1007
2017-08-18T00:54:03.393Z,1006.9
2017-08-18T00:55:06.557Z,1007
2017-08-18T00:56:09.398Z,1007
2017-08-18T00:57:12.236Z,1006.9
2017-08-18T00:58:15.420Z,1007
2017-08-18T00:59:18.932Z,1006.9
2017-08-18T01:00:21.767Z,1007
2017-08-18T01:01:24.628Z,1007
2017-08-18T01:02:27.119Z,1007
2017-08-18T01:03:29.622Z,1007
2017-08-18T01:04:32.466Z,1007
2017-08-18T01:05:35.288Z,1007
2017-08-18T01:06:37.777Z,1007
2017-08-18T01:07:40.278Z,1006.9
2017-08-18T01:08:42.786Z,1006.9
2017-08-18T01:09:45.282Z,1006.9
2017-08-18T01:10:48.114Z,1006.9
2017-08-18T01:11:50.945Z,1006.9
2017-08-18T01:12:53.466Z,1006.9
2017-08-18T01:13:55.971Z,1006.8
2017-08-18T01:14:58.455Z,1006.8
2017-08-18T01:16:00.980Z,1006.8
2017-08-18T01:17:04.493Z,1006.8
2017-08-18T01:18:06.988Z,1006.8
2017-08-18T01:19:09.487Z,1006.9
2017-08-18T01:20:12.005Z,1006.8
2017-08-18T01:21:14.848Z,1006.8
2017-08-18T01:22:17.335Z,1006.8
2017-08-18T01:23:20.204Z,1006.9
2017-08-18T01:24:22.698Z,1006.8
2017-08-18T01:25:25.196Z,1006.8
2017-08-18T01:26:27.693Z,1006.8
2017-08-18T01:27:30.539Z,1006.8
2017-08-18T01:28:33.378Z,1006.8
2017-08-18T01:29:35.883Z,1006.8
2017-08-18T01:30:38.376Z,1006.8
2017-08-18T01:31:41.204Z,1006.8
2017-08-18T01:32:44.026Z,1006.7
2017-08-18T01:33:46.512Z,1006.7
2017-08-18T01:34:49.020Z,1006.7
2017-08-18T01:35:52.198Z,1006.7
2017-08-18T01:36:54.688Z,1006.7
2017-08-18T01:37:57.192Z,1006.7
2017-08-18T01:38:59.685Z,1006.7
2017-08-18T01:40:02.194Z,1006.7
2017-08-18T01:41:05.384Z,1006.7
2017-08-18T01:42:07.885Z,1006.6
2017-08-18T01:43:11.050Z,1006.6
2017-08-18T01:44:13.545Z,1006.6
2017-08-18T01:45:16.382Z,1006.6
2017-08-18T01:46:19.192Z,1006.6
2017-08-18T01:47:22.377Z,1006.6
2017-08-18T01:48:25.569Z,1006.6
2017-08-18T01:49:28.066Z,1006.6
2017-08-18T01:50:30.901Z,1006.6
2017-08-18T01:51:33.396Z,1006.7
2017-08-18T01:52:36.223Z,1006.6
2017-08-18T01:53:39.075Z,1006.6
2017-08-18T01:54:41.912Z,1006.6
2017-08-18T01:55:45.419Z,1006.7
2017-08-18T01:56:48.254Z,1006.6
2017-08-18T01:57:52.109Z,1006.6
2017-08-18T01:58:54.606Z,1006.6
2017-08-18T01:59:57.127Z,1006.5
2017-08-18T02:00:59.962Z,1006.5
2017-08-18T02:02:02.816Z,1006.5
2017-08-18T02:03:05.677Z,1006.5
2017-08-18T02:04:08.174Z,1006.5
2017-08-18T02:05:11.007Z,1006.5
2017-08-18T02:06:13.848Z,1006.5
2017-08-18T02:07:16.678Z,1006.5
2017-08-18T02:08:19.511Z,1006.5
2017-08-18T02:09:22.031Z,1006.5
2017-08-18T02:10:24.518Z,1006.4
2017-08-18T02:11:27.008Z,1006.5
2017-08-18T02:12:29.865Z,1006.5
2017-08-18T02:13:32.373Z,1006.5
2017-08-18T02:14:34.882Z,1006.4
2017-08-18T02:15:37.411Z,1006.5
2017-08-18T02:16:40.265Z,1006.4
2017-08-18T02:17:42.769Z,1006.4
2017-08-18T02:18:45.271Z,1006.4
2017-08-18T02:19:47.773Z,1006.5
2017-08-18T02:20:50.268Z,1006.5
2017-08-18T02:21:53.116Z,1006.5
2017-08-18T02:22:55.616Z,1006.5
2017-08-18T02:23:58.140Z,1006.5
2017-08-18T02:25:00.696Z,1006.5
2017-08-18T02:26:03.526Z,1006.5
2017-08-18T02:27:06.370Z,1006.5
2017-08-18T02:28:08.867Z,1006.5
2017-08-18T02:29:11.808Z,1006.5
2017-08-18T02:30:14.630Z,1006.5
2017-08-18T02:31:17.140Z,1006.5
2017-08-18T02:32:19.965Z,1006.5
2017-08-18T02:33:23.166Z,1006.5
2017-08-18T02:34:26.048Z,1006.4
2017-08-18T02:35:28.897Z,1006.5
2017-08-18T02:36:31.383Z,1006.5
2017-08-18T02:37:33.889Z,1006.4
2017-08-18T02:38:37.057Z,1006.4
2017-08-18T02:39:39.926Z,1006.4
2017-08-18T02:40:43.121Z,1006.4
2017-08-18T02:41:45.639Z,1006.5
2017-08-18T02:42:48.127Z,1006.5
2017-08-18T02:43:50.982Z,1006.5
2017-08-18T02:44:54.189Z,1006.5
2017-08-18T02:45:57.019Z,1006.5
2017-08-18T02:46:59.530Z,1006.5
2017-08-18T02:48:02.730Z,1006.5
2017-08-18T02:49:05.229Z,1006.5
2017-08-18T02:50:08.054Z,1006.4
2017-08-18T02:51:10.883Z,1006.4
2017-08-18T02:52:13.721Z,1006.4
2017-08-18T02:53:16.912Z,1006.5
2017-08-18T02:54:19.418Z,1006.5
2017-08-18T02:55:21.896Z,1006.5
2017-08-18T02:56:24.736Z,1006.5
2017-08-18T02:57:27.260Z,1006.5
2017-08-18T02:58:29.759Z,1006.6
2017-08-18T02:59:32.946Z,1006.6
2017-08-18T03:00:35.426Z,1006.6
2017-08-18T03:01:37.918Z,1006.6
2017-08-18T03:02:40.758Z,1006.6
2017-08-18T03:03:43.253Z,1006.6
2017-08-18T03:04:46.083Z,1006.6
2017-08-18T03:05:49.258Z,1006.6
2017-08-18T03:06:52.094Z,1006.6
2017-08-18T03:07:54.943Z,1006.6
2017-08-18T03:08:57.775Z,1006.6
2017-08-18T03:10:00.253Z,1006.6
2017-08-18T03:11:03.468Z,1006.7
2017-08-18T03:12:06.301Z,1006.6
2017-08-18T03:13:08.801Z,1006.6
2017-08-18T03:14:11.359Z,1006.6
2017-08-18T03:15:15.209Z,1006.7
2017-08-18T03:16:17.724Z,1006.7
2017-08-18T03:17:20.626Z,1006.7
2017-08-18T03:18:23.130Z,1006.7
2017-08-18T03:19:25.973Z,1006.8
2017-08-18T03:20:28.468Z,1006.8
2017-08-18T03:21:30.956Z,1006.8
2017-08-18T03:22:33.458Z,1006.8
2017-08-18T03:23:35.960Z,1006.8
2017-08-18T03:24:38.458Z,1006.8
2017-08-18T03:25:40.956Z,1006.8
2017-08-18T03:26:43.448Z,1006.8
2017-08-18T03:27:46.624Z,1006.8
2017-08-18T03:28:49.138Z,1006.8
2017-08-18T03:29:52.306Z,1006.8
2017-08-18T03:30:54.813Z,1006.8
2017-08-18T03:31:57.660Z,1006.8
2017-08-18T03:33:00.518Z,1006.8
2017-08-18T03:34:03.363Z,1006.8
2017-08-18T03:35:05.863Z,1006.8
2017-08-18T03:36:08.355Z,1006.7
2017-08-18T03:37:10.856Z,1006.7
2017-08-18T03:38:14.059Z,1006.7
2017-08-18T03:39:17.577Z,1006.7
2017-08-18T03:40:20.411Z,1006.7
2017-08-18T03:41:22.906Z,1006.7
2017-08-18T03:42:25.394Z,1006.7
2017-08-18T03:43:27.896Z,1006.7
2017-08-18T03:44:30.393Z,1006.8
2017-08-18T03:45:32.870Z,1006.8
2017-08-18T03:46:35.364Z,1006.8
2017-08-18T03:47:38.192Z,1006.8
2017-08-18T03:48:41.043Z,1006.8
2017-08-18T03:49:43.891Z,1006.8
2017-08-18T03:50:46.736Z,1006.8
2017-08-18T03:51:49.222Z,1006.8
2017-08-18T03:52:52.061Z,1006.8
2017-08-18T03:53:54.549Z,1006.8
2017-08-18T03:54:57.069Z,1006.8
2017-08-18T03:55:59.569Z,1006.8
2017-08-18T03:57:02.064Z,1006.8
2017-08-18T03:58:04.893Z,1006.8
2017-08-18T03:59:07.758Z,1006.8
2017-08-18T04:00:10.581Z,1006.8
2017-08-18T04:01:13.419Z,1006.8
2017-08-18T04:02:15.917Z,1006.9
2017-08-18T04:03:18.787Z,1006.9
2017-08-18T04:04:21.283Z,1006.9
2017-08-18T04:05:24.135Z,1006.9
2017-08-18T04:06:26.610Z,1006.9
2017-08-18T04:07:29.460Z,1006.8
2017-08-18T04:08:31.954Z,1006.8
2017-08-18T04:09:34.463Z,1006.8
2017-08-18T04:10:36.957Z,1006.8
2017-08-18T04:11:39.788Z,1006.8
2017-08-18T04:12:42.618Z,1006.8
2017-08-18T04:13:45.460Z,1006.8
2017-08-18T04:14:48.636Z,1006.8
2017-08-18T04:15:51.820Z,1006.8
2017-08-18T04:16:54.635Z,1006.8
2017-08-18T04:17:57.464Z,1006.8
2017-08-18T04:19:00.322Z,1006.8
2017-08-18T04:20:03.151Z,1006.8
2017-08-18T04:21:06.009Z,1006.8
2017-08-18T04:22:08.504Z,1006.8
2017-08-18T04:23:11.000Z,1006.8
2017-08-18T04:24:14.184Z,1006.8
2017-08-18T04:25:16.687Z,1006.8
2017-08-18T04:26:19.863Z,1006.7
2017-08-18T04:27:22.357Z,1006.7
2017-08-18T04:28:24.865Z,1006.8
2017-08-18T04:29:27.355Z,1006.7
2017-08-18T04:30:29.878Z,1006.8
2017-08-18T04:31:32.384Z,1006.7
2017-08-18T04:32:34.886Z,1006.7
2017-08-18T04:33:38.077Z,1006.6
2017-08-18T04:34:40.564Z,1006.6
2017-08-18T04:35:44.406Z,1006.6
2017-08-18T04:36:46.901Z,1006.6
2017-08-18T04:37:49.402Z,1006.7
2017-08-18T04:38:51.902Z,1006.6
2017-08-18T04:39:54.399Z,1006.6
2017-08-18T04:40:56.876Z,1006.6
2017-08-18T04:41:59.375Z,1006.6
2017-08-18T04:43:01.879Z,1006.6
2017-08-18T04:44:04.706Z,1006.6
2017-08-18T04:45:07.204Z,1006.6
2017-08-18T04:46:10.037Z,1006.6
2017-08-18T04:47:12.538Z,1006.6
2017-08-18T04:48:15.035Z,1006.6
2017-08-18T04:49:17.875Z,1006.6
2017-08-18T04:50:20.715Z,1006.6
2017-08-18T04:51:23.229Z,1006.6
2017-08-18T04:52:26.049Z,1006.6
2017-08-18T04:53:28.886Z,1006.6
2017-08-18T04:54:31.385Z,1006.6
2017-08-18T04:55:33.889Z,1006.6
2017-08-18T04:56:36.384Z,1006.6
2017-08-18T04:57:39.222Z,1006.5
2017-08-18T04:58:41.707Z,1006.5
2017-08-18T04:59:44.216Z,1006.6
2017-08-18T05:00:46.704Z,1006.6
2017-08-18T05:01:49.573Z,1006.6
2017-08-18T05:02:52.070Z,1006.6
2017-08-18T05:03:54.573Z,1006.5
2017-08-18T05:04:57.729Z,1006.6
2017-08-18T05:06:00.925Z,1006.5
2017-08-18T05:07:03.450Z,1006.5
2017-08-18T05:08:05.955Z,1006.6
2017-08-18T05:09:09.155Z,1006.5
2017-08-18T05:10:12.000Z,1006.5
2017-08-18T05:11:14.832Z,1006.5
2017-08-18T05:12:18.064Z,1006.5
2017-08-18T05:13:40.096Z,1006.5
2017-08-18T05:14:42.902Z,1006.5
2017-08-18T05:15:45.347Z,1006.5
2017-08-18T05:16:48.487Z,1006.5
2017-08-18T05:17:51.666Z,1006.5
2017-08-18T05:18:54.808Z,1006.5
2017-08-18T05:19:57.258Z,1006.6
2017-08-18T05:20:59.716Z,1006.6
2017-08-18T05:22:03.182Z,1006.5
2017-08-18T05:23:05.969Z,1006.6
2017-08-18T05:24:08.461Z,1006.5
2017-08-18T05:25:10.904Z,1006.5
2017-08-18T05:26:13.714Z,1006.5
2017-08-18T05:27:16.845Z,1006.5
2017-08-18T05:28:19.638Z,1006.5
2017-08-18T05:29:22.433Z,1006.5
2017-08-18T05:30:24.923Z,1006.5
2017-08-18T05:31:27.376Z,1006.6
2017-08-18T05:32:30.173Z,1006.6
2017-08-18T05:33:32.635Z,1006.6
2017-08-18T05:34:35.093Z,1006.6
2017-08-18T05:35:37.540Z,1006.6
2017-08-18T05:36:39.998Z,1006.6
2017-08-18T05:37:43.134Z,1006.6
2017-08-18T05:38:45.943Z,1006.6
2017-08-18T05:39:49.090Z,1006.6
2017-08-18T05:40:51.549Z,1006.6
2017-08-18T05:41:53.996Z,1006.6
2017-08-18T05:42:56.475Z,1006.5
2017-08-18T05:43:59.668Z,1006.5
2017-08-18T05:45:02.464Z,1006.4
2017-08-18T05:46:04.916Z,1006.4
2017-08-18T05:47:08.391Z,1006.4
2017-08-18T05:48:11.528Z,1006.3
2017-08-18T05:49:14.002Z,1006.3
2017-08-18T05:50:17.151Z,1006.3
2017-08-18T05:51:19.951Z,1006.3
2017-08-18T05:52:23.789Z,1006.3
2017-08-18T05:53:26.243Z,1006.3
2017-08-18T05:54:28.692Z,1006.3
2017-08-18T05:55:31.498Z,1006.3
2017-08-18T05:56:33.951Z,1006.3
2017-08-18T05:57:36.730Z,1006.4
2017-08-18T05:58:39.882Z,1006.4
2017-08-18T05:59:42.329Z,1006.4
2017-08-18T06:00:45.139Z,1006.3
2017-08-18T06:01:47.605Z,1006.4
2017-08-18T06:02:50.063Z,1006.5
2017-08-18T06:03:52.856Z,1006.4
2017-08-18T06:04:55.669Z,1006.4
2017-08-18T06:05:58.121Z,1006.4
2017-08-18T06:07:00.601Z,1006.4
2017-08-18T06:08:04.400Z,1006.4
2017-08-18T06:09:06.878Z,1006.5
2017-08-18T06:10:09.678Z,1006.5
2017-08-18T06:11:12.156Z,1006.5
2017-08-18T06:12:15.288Z,1006.5
2017-08-18T06:13:17.769Z,1006.5
2017-08-18T06:14:20.227Z,1006.5
2017-08-18T06:15:23.016Z,1006.5
2017-08-18T06:16:25.806Z,1006.5
2017-08-18T06:17:28.262Z,1006.5
2017-08-18T06:18:31.422Z,1006.5
2017-08-18T06:19:33.870Z,1006.4
2017-08-18T06:20:36.344Z,1006.4
2017-08-18T06:21:39.150Z,1006.3
2017-08-18T06:22:42.284Z,1006.4
2017-08-18T06:23:44.755Z,1006.3
2017-08-18T06:24:47.207Z,1006.3
2017-08-18T06:25:49.667Z,1006.4
2017-08-18T06:26:52.803Z,1006.4
2017-08-18T06:27:55.266Z,1006.4
2017-08-18T06:28:58.068Z,1006.5
2017-08-18T06:30:00.528Z,1006.5
2017-08-18T06:31:03.671Z,1006.5
2017-08-18T06:32:07.146Z,1006.5
2017-08-18T06:33:10.642Z,1006.5
2017-08-18T06:34:13.763Z,1006.5
2017-08-18T06:35:16.894Z,1006.4
2017-08-18T06:36:19.701Z,1006.4
2017-08-18T06:37:22.843Z,1006.4
2017-08-18T06:38:25.328Z,1006.5
2017-08-18T06:39:27.795Z,1006.4
2017-08-18T06:40:30.922Z,1006.4
2017-08-18T06:41:34.056Z,1006.5
2017-08-18T06:42:37.214Z,1006.4
2017-08-18T06:43:39.669Z,1006.4
2017-08-18T06:44:42.475Z,1006.4
2017-08-18T06:45:45.618Z,1006.4
2017-08-18T06:46:48.076Z,1006.4
2017-08-18T06:47:51.228Z,1006.4
2017-08-18T06:48:53.673Z,1006.4
2017-08-18T06:49:56.123Z,1006.4
2017-08-18T06:50:58.583Z,1006.3
2017-08-18T06:52:01.049Z,1006.3
2017-08-18T06:53:03.852Z,1006.3
2017-08-18T06:54:06.313Z,1006.3
2017-08-18T06:55:09.100Z,1006.4
2017-08-18T06:56:11.563Z,1006.4
2017-08-18T06:57:14.017Z,1006.4
2017-08-18T06:58:16.811Z,1006.4
2017-08-18T06:59:19.947Z,1006.4
2017-08-18T07:00:22.427Z,1006.4
2017-08-18T07:01:24.879Z,1006.4
2017-08-18T07:02:28.083Z,1006.4
2017-08-18T07:03:30.540Z,1006.4
2017-08-18T07:04:32.993Z,1006.5
2017-08-18T07:05:36.128Z,1006.4
2017-08-18T07:06:38.596Z,1006.4
2017-08-18T07:07:42.078Z,1006.5
2017-08-18T07:08:44.550Z,1006.5
2017-08-18T07:09:47.344Z,1006.5
2017-08-18T07:10:50.153Z,1006.5
2017-08-18T07:11:52.610Z,1006.5
2017-08-18T07:12:55.082Z,1006.5
2017-08-18T07:13:57.866Z,1006.4
2017-08-18T07:15:00.670Z,1006.4
2017-08-18T07:16:03.147Z,1006.3
2017-08-18T07:17:05.609Z,1006.3
2017-08-18T07:18:08.069Z,1006.4
2017-08-18T07:19:10.870Z,1006.4
2017-08-18T07:20:13.994Z,1006.4
2017-08-18T07:21:16.464Z,1006.4
2017-08-18T07:22:19.633Z,1006.4
2017-08-18T07:23:22.439Z,1006.3
2017-08-18T07:24:24.901Z,1006.4
2017-08-18T07:25:27.394Z,1006.5
2017-08-18T07:26:30.192Z,1006.4
2017-08-18T07:27:32.661Z,1006.4
2017-08-18T07:28:35.129Z,1006.4
2017-08-18T07:29:38.272Z,1006.5
2017-08-18T07:30:40.753Z,1006.5
2017-08-18T07:31:43.210Z,1006.4
2017-08-18T07:32:45.673Z,1006.5
2017-08-18T07:33:48.483Z,1006.5
2017-08-18T07:34:51.958Z,1006.5
2017-08-18T07:35:54.436Z,1006.5
2017-08-18T07:36:56.901Z,1006.5
2017-08-18T07:37:59.708Z,1006.5
2017-08-18T07:39:02.519Z,1006.5
2017-08-18T07:40:05.658Z,1006.5
2017-08-18T07:41:08.453Z,1006.4
2017-08-18T07:42:10.919Z,1006.4
2017-08-18T07:43:13.713Z,1006.3
2017-08-18T07:44:16.199Z,1006.4
2017-08-18T07:45:18.991Z,1006.4
2017-08-18T07:46:21.439Z,1006.4
2017-08-18T07:47:24.256Z,1006.3
2017-08-18T07:48:27.408Z,1006.3
2017-08-18T07:49:30.201Z,1006.3
2017-08-18T07:50:32.663Z,1006.4
2017-08-18T07:51:35.476Z,1006.4
2017-08-18T07:52:37.933Z,1006.4
2017-08-18T07:53:40.734Z,1006.4
2017-08-18T07:54:43.530Z,1006.4
2017-08-18T07:55:45.985Z,1006.3
2017-08-18T07:56:48.456Z,1006.3
2017-08-18T07:57:51.922Z,1006.3
2017-08-18T07:58:54.384Z,1006.3
2017-08-18T07:59:57.215Z,1006.3
2017-08-18T08:01:00.015Z,1006.3
2017-08-18T08:02:03.874Z,1006.3
2017-08-18T08:03:07.030Z,1006.3
2017-08-18T08:04:10.498Z,1006.3
2017-08-18T08:05:13.302Z,1006.3
2017-08-18T08:06:15.779Z,1006.3
2017-08-18T08:07:18.913Z,1006.3
2017-08-18T08:08:22.084Z,1006.3
2017-08-18T08:09:24.526Z,1006.3
2017-08-18T08:10:26.989Z,1006.3
2017-08-18T08:11:29.476Z,1006.3
2017-08-18T08:12:31.945Z,1006.3
2017-08-18T08:13:34.395Z,1006.2
2017-08-18T08:14:37.215Z,1006.2
2017-08-18T08:15:40.012Z,1006.3
2017-08-18T08:16:42.824Z,1006.2
2017-08-18T08:17:45.279Z,1006.2
2017-08-18T08:18:47.750Z,1006.3
2017-08-18T08:19:50.218Z,1006.3
2017-08-18T08:20:53.018Z,1006.2
2017-08-18T08:21:56.182Z,1006.2
2017-08-18T08:22:58.630Z,1006.3
2017-08-18T08:24:01.427Z,1006.3
2017-08-18T08:25:03.886Z,1006.3
2017-08-18T08:26:06.376Z,1006.3
2017-08-18T08:27:09.514Z,1006.3
2017-08-18T08:28:11.976Z,1006.3
2017-08-18T08:29:15.138Z,1006.3
2017-08-18T08:30:17.957Z,1006.3
2017-08-18T08:31:20.747Z,1006.3
2017-08-18T08:32:23.200Z,1006.3
2017-08-18T08:33:25.673Z,1006.3
2017-08-18T08:34:28.132Z,1006.4
2017-08-18T08:35:30.947Z,1006.3
2017-08-18T08:36:34.087Z,1006.4
2017-08-18T08:37:37.224Z,1006.3
2017-08-18T08:38:39.693Z,1006.3
2017-08-18T08:39:42.835Z,1006.3
2017-08-18T08:40:45.642Z,1006.3
2017-08-18T08:41:48.784Z,1006.3
2017-08-18T08:42:51.241Z,1006.4
2017-08-18T08:43:53.705Z,1006.4
2017-08-18T08:44:56.178Z,1006.5
2017-08-18T08:45:58.633Z,1006.5
2017-08-18T08:47:01.773Z,1006.5
2017-08-18T08:48:04.576Z,1006.4
2017-08-18T08:49:07.389Z,1006.3
2017-08-18T08:50:10.189Z,1006.4
2017-08-18T08:51:13.337Z,1006.3
2017-08-18T08:52:16.122Z,1006.4
2017-08-18T08:53:19.601Z,1006.4
2017-08-18T08:54:22.425Z,1006.3
2017-08-18T08:55:24.889Z,1006.3
2017-08-18T08:56:27.330Z,1006.2
2017-08-18T08:57:29.806Z,1006.2
2017-08-18T08:58:32.270Z,1006.2
2017-08-18T08:59:34.752Z,1006.2
2017-08-18T09:00:37.205Z,1006.1
2017-08-18T09:01:39.671Z,1006.2
2017-08-18T09:02:42.134Z,1006.1
2017-08-18T09:03:45.617Z,1006.1
2017-08-18T09:04:48.423Z,1006
2017-08-18T09:05:51.229Z,1006.1
2017-08-18T09:06:54.707Z,1006.1
2017-08-18T09:07:57.519Z,1006
2017-08-18T09:09:00.319Z,1006.1
2017-08-18T09:10:03.473Z,1006
2017-08-18T09:11:05.915Z,1006.1
2017-08-18T09:12:09.057Z,1006
2017-08-18T09:13:12.207Z,1006
2017-08-18T09:14:15.009Z,1006
2017-08-18T09:15:17.479Z,1006
2017-08-18T09:16:20.650Z,1006
2017-08-18T09:17:23.161Z,1006
2017-08-18T09:18:25.964Z,1006
2017-08-18T09:19:28.776Z,1005.9
2017-08-18T09:20:31.569Z,1006
2017-08-18T09:21:34.063Z,1005.9
2017-08-18T09:22:36.884Z,1006
2017-08-18T09:23:39.415Z,1005.9
2017-08-18T09:24:42.235Z,1006
2017-08-18T09:25:45.044Z,1005.9
2017-08-18T09:26:47.507Z,1005.9
2017-08-18T09:27:50.654Z,1005.9
2017-08-18T09:28:53.797Z,1005.8
2017-08-18T09:29:56.271Z,1005.9
2017-08-18T09:30:59.426Z,1005.8
2017-08-18T09:32:02.234Z,1005.8
2017-08-18T09:33:05.029Z,1005.8
2017-08-18T09:34:08.182Z,1005.7
2017-08-18T09:35:11.330Z,1005.7
2017-08-18T09:36:13.801Z,1005.7
2017-08-18T09:37:16.800Z,1005.7
2017-08-18T09:38:19.600Z,1005.7
2017-08-18T09:39:23.085Z,1005.7
2017-08-18T09:40:25.541Z,1005.7
2017-08-18T09:41:28.347Z,1005.7
2017-08-18T09:42:30.805Z,1005.7
2017-08-18T09:43:33.283Z,1005.6
2017-08-18T09:44:35.762Z,1005.7
2017-08-18T09:45:38.573Z,1005.5
2017-08-18T09:46:41.700Z,1005.6
2017-08-18T09:47:44.164Z,1005.7
2017-08-18T09:48:46.646Z,1005.6
2017-08-18T09:49:49.444Z,1005.7
2017-08-18T09:50:52.245Z,1005.7
2017-08-18T09:51:54.693Z,1005.7
2017-08-18T09:52:57.841Z,1005.7
2017-08-18T09:54:00.332Z,1005.6
2017-08-18T09:55:03.121Z,1005.6
2017-08-18T09:56:05.932Z,1005.6
2017-08-18T09:57:08.397Z,1005.6
2017-08-18T09:58:11.208Z,1005.6
2017-08-18T09:59:13.695Z,1005.5
2017-08-18T10:00:16.830Z,1005.5
2017-08-18T10:01:19.971Z,1005.6
2017-08-18T10:02:22.791Z,1005.5
2017-08-18T10:03:25.252Z,1005.5
2017-08-18T10:04:28.058Z,1005.5
2017-08-18T10:05:30.520Z,1005.5
2017-08-18T10:06:33.312Z,1005.5
2017-08-18T10:07:35.770Z,1005.5
2017-08-18T10:08:38.261Z,1005.5
2017-08-18T10:09:41.401Z,1005.5
2017-08-18T10:10:44.194Z,1005.4
2017-08-18T10:11:47.004Z,1005.5
2017-08-18T10:12:49.486Z,1005.5
2017-08-18T10:13:51.949Z,1005.4
2017-08-18T10:14:54.426Z,1005.3
2017-08-18T10:15:57.237Z,1005.4
2017-08-18T10:16:59.702Z,1005.4
2017-08-18T10:18:02.487Z,1005.3
2017-08-18T10:19:05.300Z,1005.3
2017-08-18T10:20:07.758Z,1005.3
2017-08-18T10:21:10.603Z,1005.3
2017-08-18T10:22:13.405Z,1005.2
2017-08-18T10:23:16.217Z,1005.2
2017-08-18T10:24:19.010Z,1005.2
2017-08-18T10:25:21.487Z,1005.2
2017-08-18T10:26:24.274Z,1005.3
2017-08-18T10:27:27.425Z,1005.3
2017-08-18T10:28:29.893Z,1005.3
2017-08-18T10:29:32.351Z,1005.4
2017-08-18T10:30:35.502Z,1005.3
2017-08-18T10:31:37.967Z,1005.3
2017-08-18T10:32:40.441Z,1005.3
2017-08-18T10:33:42.919Z,1005.3
2017-08-18T10:34:45.714Z,1005.2
2017-08-18T10:35:48.180Z,1005.3
2017-08-18T10:36:50.980Z,1005.3
2017-08-18T10:37:53.441Z,1005.3
2017-08-18T10:38:55.906Z,1005.3
2017-08-18T10:39:58.726Z,1005.2
2017-08-18T10:41:01.517Z,1005.3
2017-08-18T10:42:04.655Z,1005.3
2017-08-18T10:43:07.444Z,1005.3
2017-08-18T10:44:09.906Z,1005.3
2017-08-18T10:45:12.726Z,1005.3
2017-08-18T10:46:15.864Z,1005.3
2017-08-18T10:47:18.676Z,1005.3
2017-08-18T10:48:21.132Z,1005.3
2017-08-18T10:49:24.275Z,1005.3
2017-08-18T10:50:26.761Z,1005.3
2017-08-18T10:51:29.567Z,1005.3
2017-08-18T10:52:32.376Z,1005.2
2017-08-18T10:53:34.831Z,1005.3
2017-08-18T10:54:37.965Z,1005.3
2017-08-18T10:55:40.427Z,1005.3
2017-08-18T10:56:42.889Z,1005.3
2017-08-18T10:57:45.347Z,1005.4
2017-08-18T10:58:47.825Z,1005.4
2017-08-18T10:59:50.951Z,1005.4
2017-08-18T11:00:53.753Z,1005.3
2017-08-18T11:01:56.557Z,1005.3
2017-08-18T11:02:59.013Z,1005.3
2017-08-18T11:04:01.819Z,1005.3
2017-08-18T11:05:05.301Z,1005.3
2017-08-18T11:06:08.796Z,1005.3
2017-08-18T11:07:11.595Z,1005.3
2017-08-18T11:08:14.418Z,1005.4
2017-08-18T11:09:16.872Z,1005.3
2017-08-18T11:10:20.340Z,1005.3
2017-08-18T11:11:22.800Z,1005.3
2017-08-18T11:12:25.266Z,1005.3
2017-08-18T11:13:27.728Z,1005.3
2017-08-18T11:14:30.528Z,1005.2
2017-08-18T11:15:33.672Z,1005.2
2017-08-18T11:16:36.806Z,1005.2
2017-08-18T11:17:39.606Z,1005.2
2017-08-18T11:18:42.757Z,1005.2
2017-08-18T11:19:45.559Z,1005.2
2017-08-18T11:20:48.699Z,1005.3
2017-08-18T11:21:51.507Z,1005.3
2017-08-18T11:22:53.947Z,1005.3
2017-08-18T11:23:56.760Z,1005.2
2017-08-18T11:24:59.567Z,1005.2
2017-08-18T11:26:02.716Z,1005.2
2017-08-18T11:27:05.188Z,1005.2
2017-08-18T11:28:07.987Z,1005.2
2017-08-18T11:29:10.448Z,1005.2
2017-08-18T11:30:13.943Z,1005.2
2017-08-18T11:31:17.094Z,1005.2
2017-08-18T11:32:19.888Z,1005.1
2017-08-18T11:33:22.703Z,1005.1
2017-08-18T11:34:25.181Z,1005.1
2017-08-18T11:35:27.663Z,1005.1
2017-08-18T11:36:30.118Z,1005.1
2017-08-18T11:37:32.911Z,1005.2
2017-08-18T11:38:35.728Z,1005.2
2017-08-18T11:39:38.195Z,1005.3
2017-08-18T11:40:40.672Z,1005.2
2017-08-18T11:41:43.474Z,1005.3
2017-08-18T11:42:46.281Z,1005.2
2017-08-18T11:43:49.116Z,1005.2
2017-08-18T11:44:52.261Z,1005.3
2017-08-18T11:45:55.390Z,1005.3
2017-08-18T11:46:57.863Z,1005.3
2017-08-18T11:48:00.642Z,1005.3
2017-08-18T11:49:03.792Z,1005.3
2017-08-18T11:50:07.279Z,1005.4
2017-08-18T11:51:10.420Z,1005.4
2017-08-18T11:52:14.234Z,1005.4
2017-08-18T11:53:16.694Z,1005.4
2017-08-18T11:54:19.492Z,1005.3
2017-08-18T11:55:22.306Z,1005.3
2017-08-18T11:56:25.446Z,1005.3
2017-08-18T11:57:27.899Z,1005.2
2017-08-18T11:58:30.381Z,1005.2
2017-08-18T11:59:33.176Z,1005.2
2017-08-18T12:00:36.307Z,1005.2
2017-08-18T12:01:39.464Z,1005.2
2017-08-18T12:02:42.441Z,1005.2
2017-08-18T12:03:45.169Z,1005.2
2017-08-18T12:04:47.634Z,1005.2
2017-08-18T12:05:50.594Z,1005.1
2017-08-18T12:06:53.165Z,1005.2
2017-08-18T12:07:56.048Z,1005.1
2017-08-18T12:08:58.974Z,1005.2
2017-08-18T12:10:01.807Z,1005.1
2017-08-18T12:11:04.768Z,1005.2
2017-08-18T12:12:07.832Z,1005.2
2017-08-18T12:13:10.626Z,1005.2
2017-08-18T12:14:13.088Z,1005.2
2017-08-18T12:15:15.800Z,1005.2
2017-08-18T12:16:18.462Z,1005.2
2017-08-18T12:17:21.106Z,1005.1
2017-08-18T12:18:23.994Z,1005.1
2017-08-18T12:19:26.478Z,1005.2
2017-08-18T12:20:30.032Z,1005.1
2017-08-18T12:21:32.913Z,1005.1
2017-08-18T12:22:36.085Z,1005.2
2017-08-18T12:23:39.046Z,1005.1
2017-08-18T12:24:41.611Z,1005.1
2017-08-18T12:25:44.529Z,1005.1
2017-08-18T12:26:47.329Z,1005.1
2017-08-18T12:27:50.002Z,1005.1
2017-08-18T12:28:52.793Z,1005.1
2017-08-18T12:29:55.730Z,1005.1
2017-08-18T12:30:58.541Z,1005.1
2017-08-18T12:32:01.461Z,1005.1
2017-08-18T12:33:04.281Z,1005.1
2017-08-18T12:34:06.799Z,1005.1
2017-08-18T12:35:09.314Z,1005
2017-08-18T12:36:12.168Z,1005
2017-08-18T12:37:14.681Z,1005
2017-08-18T12:38:17.185Z,1005
2017-08-18T12:39:20.084Z,1005
2017-08-18T12:40:23.335Z,1005
2017-08-18T12:41:25.808Z,1004.9
2017-08-18T12:42:29.069Z,1004.9
2017-08-18T12:43:31.550Z,1004.9
2017-08-18T12:44:34.125Z,1004.9
2017-08-18T12:45:36.980Z,1004.9
2017-08-18T12:46:39.503Z,1004.9
2017-08-18T12:47:42.054Z,1004.9
2017-08-18T12:48:44.867Z,1004.9
2017-08-18T12:49:48.165Z,1004.9
2017-08-18T12:50:50.812Z,1004.9
2017-08-18T12:51:53.279Z,1004.9
2017-08-18T12:52:55.797Z,1004.8
2017-08-18T12:53:58.663Z,1004.8
2017-08-18T12:55:01.156Z,1004.8
2017-08-18T12:56:03.719Z,1004.8
2017-08-18T12:57:07.247Z,1004.8
2017-08-18T12:58:10.537Z,1004.8
2017-08-18T12:59:12.989Z,1004.8
2017-08-18T13:00:16.139Z,1004.8
2017-08-18T13:01:19.947Z,1004.8
2017-08-18T13:02:22.406Z,1004.7
2017-08-18T13:03:24.858Z,1004.7
2017-08-18T13:04:27.321Z,1004.7
2017-08-18T13:05:29.791Z,1004.8
2017-08-18T13:06:32.927Z,1004.9
2017-08-18T13:07:35.383Z,1004.8